Coy, AR (72037)

22:33 CDT le 29 août 2015 (GMT -0500)
Stuttgart Municipal | | Change Station
CLOSE
Current Station
Aéroport
Location: Stuttgart,
Altitude: 223 ft
Stations météo à proximité

Alt. 223 ft 34.60 °N, 91.57 °W | Updated 18 minutes ago

Nuageux
Nuageux
79 ° F
Paraît 79 ° F
N
0
Vent Variable Vent de Nord

Aujourd'hui
Haut(e) -- | Bas -- ° F
--% Risque de précip.
Hier
Haut(e) -- | Bas -- ° F
Precip. -- pouce
6:38 AM 7:38 PM
Pleine lune, 100% visible
Pression 30.01 pouce
Visibilité 10.0 Miles terrestres
Nuages Ciel dégagé
Point de rosée 66 ° F
Humidité 65%
Précipitations 0.00 pouce
Profondeur de la couche neigeuse Non disponible.
UV 0 sur 12
Pollen 9.20 sur 12
Qualité de l'air Non disponible.
Flu Activity Non disponible.
METAR KSGT 300315Z AUTO 00000KT 10SM CLR 26/19 A3001 RMK AO1
Pression 30.01 pouce
Visibilité 10.0 Miles terrestres
Nuages Ciel dégagé
Point de rosée 66 ° F
Humidité 65%
Précipitations 0.00 pouce
Profondeur de la couche neigeuse Non disponible.
UV 0 sur 12
Pollen 9.20 sur 12
Qualité de l'air Non disponible.
Flu Activity Non disponible.
METAR KSGT 300315Z AUTO 00000KT 10SM CLR 26/19 A3001 RMK AO1

10-Day Weather Forecast

×

Almanac

Astronomie

Aug. 29, 2015 Lever Coucher
Temps réel
Crépuscule civil
Crépuscule nautique
Crépuscule astronomique
Lune
Durée de lumière visible
Longueur du jour
Tomorrow will be .
, % of the Moon is Illuminated

Extrêmes aujourd'hui

State Highs State Lows

Community

WunderPhotos

Upload Photos

1,850,870 Photos téléchargées !

WunderBlogs® & News

Nearby

Qualité de l'air

  Qualité de l'air Indice de la qualité de l'air Polluant
Not available.

Épaisseur de neige

Station Depth Altitude

Activité sismique

Ville Distance Mag. Time & Date
Minimum magnitude displayed is 2.5.

Températures des eaux côtières

Lieu Température

Stations

Stations météo à proximité

Emplacement de la station Température Refroidissement éolien Point de rosée Humidité Vent Precip. Alt. Mise à jour Type